Time;durP1;ratioP1;P1;durP2;ratioP2;P2;SDS_P1;SDS_P2;PMS_P1;PMS_P2;Temp;Humidity;BMP_temperature;BMP_pressure;BME280_temperature;BME280_humidity;BME280_pressure;Samples;Min_cycle;Max_cycle;Signal;HPM_P1;HPM_P2
2021/08/10 00:02:19;;;;;;;1.87;1.30;;;;;;;15.16;100.00;101267.72;5095938;28;20466;-70
2021/08/10 00:04:47;;;;;;;2.10;1.53;;;;;;;15.16;100.00;101263.06;5095973;28;20436;-70
2021/08/10 00:07:13;;;;;;;3.00;1.40;;;;;;;15.10;100.00;101256.94;5095913;28;20448;-70
2021/08/10 00:09:40;;;;;;;4.10;1.80;;;;;;;15.14;100.00;101263.41;5095859;28;20444;-70
2021/08/10 00:12:07;;;;;;;3.50;1.20;;;;;;;15.16;100.00;101260.34;5095499;28;20997;-70
2021/08/10 00:14:33;;;;;;;3.70;1.40;;;;;;;15.19;100.00;101273.38;5095751;28;20455;-70
2021/08/10 00:17:00;;;;;;;1.90;1.53;;;;;;;15.18;100.00;101269.00;5095741;28;20826;-70
2021/08/10 00:19:26;;;;;;;1.50;1.30;;;;;;;15.23;100.00;101276.25;5095642;28;20441;-70
2021/08/10 00:21:54;;;;;;;2.13;1.43;;;;;;;15.21;100.00;101273.84;5095600;28;20440;-70
2021/08/10 00:24:20;;;;;;;1.77;1.33;;;;;;;15.13;100.00;101266.41;5095544;28;20464;-70
2021/08/10 00:26:47;;;;;;;1.40;1.30;;;;;;;15.08;100.00;101263.84;5095476;28;20451;-70
2021/08/10 00:29:13;;;;;;;1.10;1.00;;;;;;;15.06;100.00;101266.88;5095400;28;20448;-70
2021/08/10 00:31:40;;;;;;;2.13;1.03;;;;;;;15.06;100.00;101269.63;5095305;28;20447;-70
2021/08/10 00:34:06;;;;;;;2.20;1.57;;;;;;;15.05;100.00;101275.38;5094973;28;20512;-70
2021/08/10 00:36:32;;;;;;;2.00;1.40;;;;;;;15.04;100.00;101273.75;5095308;28;20785;-69
2021/08/10 00:39:00;;;;;;;1.60;1.40;;;;;;;14.99;100.00;101271.97;5094959;28;20965;-70
2021/08/10 00:41:27;;;;;;;1.10;1.00;;;;;;;14.94;100.00;101274.03;5095236;28;20445;-72
2021/08/10 00:43:53;;;;;;;1.47;1.00;;;;;;;14.84;100.00;101275.13;5095128;28;20473;-71
2021/08/10 00:46:19;;;;;;;3.03;1.33;;;;;;;14.67;100.00;101275.00;5095180;28;20441;-71
2021/08/10 00:48:46;;;;;;;2.40;1.47;;;;;;;14.62;100.00;101267.78;5095063;28;20448;-71
2021/08/10 00:51:14;;;;;;;1.00;0.90;;;;;;;14.59;100.00;101268.38;5094700;28;20781;-70
2021/08/10 00:53:41;;;;;;;2.70;1.63;;;;;;;14.61;100.00;101271.63;5094524;28;20959;-70
2021/08/10 00:56:10;;;;;;;2.50;1.60;;;;;;;14.65;100.00;101269.84;5094725;28;20443;-70
2021/08/10 00:58:38;;;;;;;2.20;1.50;;;;;;;14.63;100.00;101261.19;5094980;28;20441;-70
2021/08/10 01:01:05;;;;;;;1.97;1.40;;;;;;;14.57;100.00;101260.53;5093813;28;20812;-70
2021/08/10 01:03:31;;;;;;;1.80;1.20;;;;;;;14.66;100.00;101266.03;5094709;28;20538;-71
2021/08/10 01:05:58;;;;;;;1.90;1.10;;;;;;;14.61;100.00;101266.97;5094774;28;20443;-71
2021/08/10 01:08:38;;;;;;;1.67;1.20;;;;;;;14.66;100.00;101267.97;5094399;28;20949;-71
2021/08/10 01:11:16;;;;;;;1.70;1.13;;;;;;;14.65;100.00;101267.13;5094478;28;20902;-71
2021/08/10 01:13:50;;;;;;;2.30;1.30;;;;;;;14.60;100.00;101261.81;5094491;28;20484;-70
2021/08/10 01:16:23;;;;;;;1.30;1.10;;;;;;;14.70;100.00;101258.00;5094633;28;20432;-71
2021/08/10 01:18:55;;;;;;;1.47;1.37;;;;;;;14.68;100.00;101265.72;5094582;28;20774;-71
2021/08/10 01:21:26;;;;;;;3.23;1.40;;;;;;;14.68;100.00;101263.78;5094563;28;20421;-71
2021/08/10 01:24:02;;;;;;;1.73;1.43;;;;;;;14.68;100.00;101268.44;5094437;28;20464;-70
2021/08/10 01:26:44;;;;;;;2.60;1.30;;;;;;;14.60;100.00;101253.63;5094452;28;20432;-70
2021/08/10 01:29:19;;;;;;;1.37;1.07;;;;;;;14.59;100.00;101266.47;5094089;28;21136;-68
2021/08/10 01:31:49;;;;;;;2.73;1.83;;;;;;;14.60;100.00;101256.34;5094289;28;20428;-69
2021/08/10 01:34:22;;;;;;;2.60;1.40;;;;;;;14.59;100.00;101258.28;5093733;28;20491;-68
2021/08/10 01:36:50;;;;;;;1.43;1.13;;;;;;;14.56;100.00;101263.53;5094204;28;20425;-69
2021/08/10 01:39:19;;;;;;;2.83;1.73;;;;;;;14.59;100.00;101263.72;5094134;28;20428;-68
2021/08/10 01:41:47;;;;;;;2.30;1.27;;;;;;;14.58;100.00;101253.16;5094081;28;20444;-69
2021/08/10 01:44:16;;;;;;;1.50;1.33;;;;;;;14.62;100.00;101251.41;5093662;28;20844;-70
2021/08/10 01:46:43;;;;;;;2.83;1.53;;;;;;;14.60;100.00;101251.69;5094006;28;20497;-72
2021/08/10 01:49:12;;;;;;;2.17;1.30;;;;;;;14.48;100.00;101256.09;5093942;28;20475;-70
2021/08/10 01:51:39;;;;;;;2.97;1.53;;;;;;;14.49;100.00;101252.28;5093956;28;20447;-72
2021/08/10 01:54:09;;;;;;;1.20;0.90;;;;;;;14.43;100.00;101254.28;5093783;28;20481;-73
2021/08/10 01:56:36;;;;;;;1.80;1.60;;;;;;;14.45;100.00;101262.16;5093617;28;20440;-72
2021/08/10 01:59:03;;;;;;;1.57;1.40;;;;;;;14.50;100.00;101259.34;5093828;28;20436;-72
2021/08/10 02:01:31;;;;;;;1.63;1.13;;;;;;;14.58;100.00;101266.78;5093721;28;20448;-72
2021/08/10 02:03:59;;;;;;;2.50;1.80;;;;;;;14.64;100.00;101252.69;5093622;28;20830;-72
2021/08/10 02:06:29;;;;;;;4.50;1.90;;;;;;;14.75;100.00;101260.63;5093352;28;20440;-73
2021/08/10 02:08:57;;;;;;;4.03;2.10;;;;;;;14.86;100.00;101261.97;5093608;28;20539;-73
2021/08/10 02:11:25;;;;;;;2.20;1.70;;;;;;;14.94;100.00;101269.38;5093596;28;20444;-73
2021/08/10 02:13:54;;;;;;;1.63;1.30;;;;;;;15.03;100.00;101270.22;5093384;28;20491;-72
2021/08/10 02:16:22;;;;;;;2.40;1.80;;;;;;;15.08;100.00;101269.28;5093596;28;20440;-72
2021/08/10 02:18:48;;;;;;;1.93;1.73;;;;;;;15.18;100.00;101277.19;5093244;28;20800;-72
2021/08/10 02:21:23;;;;;;;4.00;2.00;;;;;;;15.18;100.00;101274.47;5093378;28;20440;-71
2021/08/10 02:23:52;;;;;;;2.00;1.60;;;;;;;15.26;100.00;101281.88;5093415;28;20452;-74
2021/08/10 02:26:20;;;;;;;2.50;1.90;;;;;;;15.31;100.00;101265.34;5093385;28;20444;-74
2021/08/10 02:28:48;;;;;;;2.97;1.90;;;;;;;15.35;100.00;101273.72;5093399;28;20444;-74
2021/08/10 02:31:15;;;;;;;2.53;1.93;;;;;;;15.39;100.00;101270.03;5093019;28;20960;-74
2021/08/10 02:33:42;;;;;;;3.13;1.77;;;;;;;15.46;100.00;101268.78;5092706;28;20871;-74
2021/08/10 02:36:09;;;;;;;4.73;2.37;;;;;;;15.47;100.00;101264.94;5093258;28;20440;-74
2021/08/10 02:38:37;;;;;;;2.93;2.37;;;;;;;15.44;100.00;101266.38;5093242;28;20447;-74
2021/08/10 02:41:06;;;;;;;2.10;1.53;;;;;;;15.46;100.00;101264.13;5093277;28;20444;-74
2021/08/10 02:43:33;;;;;;;6.40;2.43;;;;;;;15.52;100.00;101265.59;5093144;28;20464;-75
2021/08/10 02:46:00;;;;;;;2.50;1.73;;;;;;;15.48;100.00;101263.81;5092841;28;20943;-74
2021/08/10 02:48:30;;;;;;;5.17;2.40;;;;;;;15.39;100.00;101261.84;5092821;28;20440;-75
2021/08/10 02:50:57;;;;;;;4.37;1.73;;;;;;;15.32;100.00;101261.53;5092806;28;20440;-74
2021/08/10 02:53:23;;;;;;;4.90;1.60;;;;;;;15.26;100.00;101268.22;5092734;28;20976;-74
2021/08/10 02:55:59;;;;;;;2.43;1.60;;;;;;;15.25;100.00;101272.09;5093081;28;20440;-74
2021/08/10 02:58:30;;;;;;;3.87;2.60;;;;;;;15.26;100.00;101265.50;5093147;28;20428;-74
2021/08/10 03:01:00;;;;;;;4.03;2.07;;;;;;;15.23;100.00;101257.97;5093034;28;20450;-74
2021/08/10 03:03:30;;;;;;;2.33;2.10;;;;;;;15.22;100.00;101264.53;5092927;28;20460;-74
2021/08/10 03:05:59;;;;;;;4.03;2.07;;;;;;;15.26;100.00;101260.03;5093434;28;20447;-75
2021/08/10 03:08:29;;;;;;;1.70;1.60;;;;;;;15.28;100.00;101260.56;5092991;28;20440;-75
2021/08/10 03:10:57;;;;;;;2.77;2.10;;;;;;;15.24;100.00;101258.78;5092982;28;20432;-75
2021/08/10 03:13:29;;;;;;;2.87;2.10;;;;;;;15.23;100.00;101249.78;5092790;28;20491;-73
2021/08/10 03:15:58;;;;;;;3.70;2.40;;;;;;;15.21;100.00;101256.66;5092932;28;20425;-74
2021/08/10 03:18:30;;;;;;;3.57;2.07;;;;;;;15.21;100.00;101251.19;5092877;28;20452;-73
2021/08/10 03:21:00;;;;;;;2.20;1.93;;;;;;;15.25;100.00;101258.44;5092920;28;20435;-73
2021/08/10 03:23:29;;;;;;;1.93;1.67;;;;;;;15.30;100.00;101252.84;5092807;28;20820;-74
2021/08/10 03:25:56;;;;;;;3.40;2.27;;;;;;;15.27;100.00;101250.75;5096287;28;20452;-73
2021/08/10 03:28:26;;;;;;;2.33;1.63;;;;;;;15.25;100.00;101254.91;5096692;28;20436;-73
2021/08/10 03:30:56;;;;;;;5.47;2.17;;;;;;;15.27;100.00;101258.94;5096714;28;20424;-73
2021/08/10 03:33:24;;;;;;;6.03;2.60;;;;;;;15.21;100.00;101262.91;5096216;28;20491;-74
2021/08/10 03:35:52;;;;;;;3.40;2.63;;;;;;;15.19;100.00;101251.53;5096605;28;20452;-73
2021/08/10 03:38:20;;;;;;;2.67;1.93;;;;;;;15.20;100.00;101255.06;5096562;28;20437;-73
2021/08/10 03:40:47;;;;;;;3.27;2.10;;;;;;;15.28;100.00;101257.03;5096484;28;20480;-73
2021/08/10 03:43:14;;;;;;;1.97;1.77;;;;;;;15.33;100.00;101251.41;5096304;28;20460;-73
2021/08/10 03:45:42;;;;;;;2.70;2.13;;;;;;;15.37;100.00;101244.19;5096298;28;20444;-73
2021/08/10 03:48:11;;;;;;;3.13;2.23;;;;;;;15.41;100.00;101249.84;5096299;28;20440;-73
2021/08/10 03:50:38;;;;;;;3.03;1.63;;;;;;;15.44;100.00;101249.97;5095863;28;20468;-73
2021/08/10 03:53:05;;;;;;;3.40;2.63;;;;;;;15.43;100.00;101247.56;5096096;28;20515;-73
2021/08/10 03:55:34;;;;;;;2.10;1.60;;;;;;;15.44;100.00;101246.44;5096104;28;20447;-73
2021/08/10 03:58:00;;;;;;;3.33;2.40;;;;;;;15.46;100.00;101238.75;5096160;28;20439;-73
2021/08/10 04:00:27;;;;;;;3.80;2.40;;;;;;;15.41;100.00;101245.19;5096069;28;20437;-73
2021/08/10 04:02:55;;;;;;;1.80;1.70;;;;;;;15.48;100.00;101250.16;5095980;28;20499;-73
2021/08/10 04:05:24;;;;;;;2.20;1.50;;;;;;;15.42;100.00;101254.16;5096055;28;20441;-73
2021/08/10 04:07:51;;;;;;;3.80;2.17;;;;;;;15.37;100.00;101247.72;5095767;28;20444;-73
2021/08/10 04:10:17;;;;;;;5.67;1.87;;;;;;;15.43;100.00;101247.56;5095965;28;20439;-73
2021/08/10 04:12:44;;;;;;;6.60;2.17;;;;;;;15.46;100.00;101249.69;5095852;28;20464;-73
2021/08/10 04:15:13;;;;;;;4.80;2.10;;;;;;;15.48;100.00;101239.25;5095507;28;21004;-73
2021/08/10 04:17:42;;;;;;;4.23;2.23;;;;;;;15.50;100.00;101256.91;5095802;28;20440;-72
2021/08/10 04:20:09;;;;;;;2.87;1.73;;;;;;;15.56;100.00;101246.66;5095393;28;20455;-73
2021/08/10 04:22:40;;;;;;;2.17;1.50;;;;;;;15.62;100.00;101253.56;5095310;28;20981;-72
2021/08/10 04:25:07;;;;;;;1.67;1.50;;;;;;;15.67;100.00;101253.47;5095653;28;20417;-73
2021/08/10 04:27:33;;;;;;;1.80;1.30;;;;;;;15.73;100.00;101254.91;5095633;28;20860;-72
2021/08/10 04:30:00;;;;;;;2.47;1.43;;;;;;;15.77;100.00;101244.94;5095570;28;20440;-72
2021/08/10 04:32:26;;;;;;;4.30;2.50;;;;;;;15.80;100.00;101241.56;5095232;28;20546;-72
2021/08/10 04:34:53;;;;;;;1.93;1.03;;;;;;;15.88;100.00;101242.69;5095460;28;20468;-72
2021/08/10 04:37:19;;;;;;;2.77;1.90;;;;;;;15.96;100.00;101241.91;5093853;28;20440;-73
2021/08/10 04:39:47;;;;;;;5.50;2.03;;;;;;;16.01;100.00;101243.66;5095423;28;20443;-72
2021/08/10 04:42:13;;;;;;;2.47;2.13;;;;;;;16.03;100.00;101242.22;5095332;28;20441;-71
2021/08/10 04:44:40;;;;;;;2.37;1.80;;;;;;;16.05;100.00;101233.72;5095341;28;20441;-71
2021/08/10 04:47:06;;;;;;;5.80;2.00;;;;;;;16.09;100.00;101238.19;5095147;28;20478;-70
2021/08/10 04:49:33;;;;;;;4.00;2.20;;;;;;;16.21;100.00;101232.09;5095177;28;20452;-70
2021/08/10 04:51:59;;;;;;;2.43;1.50;;;;;;;16.30;100.00;101240.28;5095102;28;20448;-70
2021/08/10 04:54:26;;;;;;;3.47;2.17;;;;;;;16.36;100.00;101228.84;5094912;28;20537;-70
2021/08/10 04:56:53;;;;;;;4.53;1.80;;;;;;;16.45;100.00;101238.97;5095094;28;20447;-70
2021/08/10 04:59:20;;;;;;;5.30;2.10;;;;;;;16.49;100.00;101245.41;5094669;28;20451;-70
2021/08/10 05:01:47;;;;;;;2.20;1.93;;;;;;;16.51;100.00;101243.13;5094944;28;20448;-69
2021/08/10 05:04:13;;;;;;;2.60;2.00;;;;;;;16.55;100.00;101238.63;5094467;28;21012;-70
2021/08/10 05:06:40;;;;;;;2.90;2.10;;;;;;;16.56;100.00;101235.59;5094824;28;20444;-70
2021/08/10 05:09:07;;;;;;;3.10;1.53;;;;;;;16.60;100.00;101235.72;5094756;28;20436;-70
2021/08/10 05:11:33;;;;;;;2.20;1.63;;;;;;;16.63;100.00;101229.59;5094768;28;20444;-70
2021/08/10 05:14:01;;;;;;;3.40;1.97;;;;;;;16.69;99.29;101232.97;5094566;28;20484;-69
2021/08/10 05:16:28;;;;;;;4.13;2.23;;;;;;;16.71;99.14;101228.78;5094663;28;20432;-70
2021/08/10 05:18:54;;;;;;;2.27;1.90;;;;;;;16.77;99.94;101227.50;5094300;28;20933;-70
2021/08/10 05:21:20;;;;;;;2.73;1.70;;;;;;;16.78;99.91;101231.84;5094530;28;20489;-70
2021/08/10 05:23:47;;;;;;;1.80;1.40;;;;;;;16.83;98.67;101233.59;5094416;28;20468;-69
2021/08/10 05:26:13;;;;;;;12.40;1.60;;;;;;;16.84;98.26;101229.72;5094461;28;20445;-70
2021/08/10 05:28:40;;;;;;;2.30;1.57;;;;;;;16.88;98.01;101222.47;5094102;28;20956;-70
2021/08/10 05:31:08;;;;;;;2.70;2.27;;;;;;;16.92;97.31;101226.16;5094344;28;20444;-70
2021/08/10 05:33:34;;;;;;;2.50;1.80;;;;;;;17.03;95.96;101226.59;5093674;28;20519;-68
2021/08/10 05:36:01;;;;;;;2.43;1.57;;;;;;;17.11;96.66;101212.06;5095316;28;20933;-69
2021/08/10 05:38:27;;;;;;;3.10;2.07;;;;;;;17.19;97.39;101218.63;5094180;28;20444;-68
2021/08/10 05:40:53;;;;;;;3.83;2.20;;;;;;;17.24;98.83;101224.72;5094132;28;20436;-68
2021/08/10 05:43:20;;;;;;;5.10;2.30;;;;;;;17.27;99.61;101226.81;5093983;28;20460;-68
2021/08/10 05:45:46;;;;;;;3.27;2.03;;;;;;;17.31;99.78;101230.50;5093970;28;20448;-68
2021/08/10 05:48:14;;;;;;;2.70;1.63;;;;;;;17.34;97.64;101226.28;5093363;28;20823;-68
2021/08/10 05:50:41;;;;;;;2.43;2.07;;;;;;;17.42;95.84;101228.16;5094052;28;20447;-69
2021/08/10 05:53:07;;;;;;;2.37;1.93;;;;;;;17.48;96.08;101234.25;5093857;28;20464;-69
2021/08/10 05:55:34;;;;;;;3.37;2.00;;;;;;;17.50;96.67;101227.31;5093853;28;20476;-69
2021/08/10 05:58:00;;;;;;;9.50;2.40;;;;;;;17.57;96.54;101219.34;5093851;28;20435;-71
2021/08/10 06:00:26;;;;;;;2.33;1.60;;;;;;;17.66;96.34;101213.81;5093824;28;20444;-71
2021/08/10 06:02:54;;;;;;;3.60;2.40;;;;;;;17.74;95.38;101220.41;5093739;28;20468;-71
2021/08/10 06:05:22;;;;;;;5.93;1.83;;;;;;;17.81;95.96;101213.25;5093716;28;20443;-72
2021/08/10 06:07:48;;;;;;;1.80;1.70;;;;;;;17.86;92.80;101223.22;5093745;28;20853;-72
2021/08/10 06:10:15;;;;;;;3.33;1.70;;;;;;;17.92;93.10;101219.13;5093664;28;20440;-71
2021/08/10 06:12:41;;;;;;;2.40;1.90;;;;;;;18.01;92.66;101217.13;5093613;28;20468;-71
2021/08/10 06:15:08;;;;;;;2.80;1.80;;;;;;;18.14;91.78;101228.94;5093521;28;20878;-71
2021/08/10 06:17:35;;;;;;;3.70;2.07;;;;;;;18.21;91.60;101231.97;5093583;28;20444;-71
2021/08/10 06:20:01;;;;;;;2.40;1.90;;;;;;;18.29;90.65;101233.81;5093575;28;20814;-74
2021/08/10 06:22:29;;;;;;;2.40;1.70;;;;;;;18.34;90.61;101232.81;5093146;28;20436;-74
2021/08/10 06:24:55;;;;;;;3.53;2.30;;;;;;;18.39;90.07;101222.41;5093469;28;20436;-74
2021/08/10 06:27:23;;;;;;;6.57;2.47;;;;;;;18.44;90.23;101223.34;5093464;28;20443;-74
2021/08/10 06:29:49;;;;;;;7.83;2.30;;;;;;;18.48;90.30;101221.53;5093131;28;20488;-74
2021/08/10 06:32:16;;;;;;;3.00;2.17;;;;;;;18.50;92.00;101216.50;5093185;28;20445;-74
2021/08/10 06:34:43;;;;;;;2.20;1.87;;;;;;;18.55;90.86;101216.28;5093382;28;20468;-74
2021/08/10 06:37:09;;;;;;;2.17;1.70;;;;;;;18.65;90.73;101208.41;5093306;28;20453;-73
2021/08/10 06:39:37;;;;;;;4.23;1.70;;;;;;;18.77;90.52;101221.41;5093292;28;20847;-73
2021/08/10 06:42:04;;;;;;;3.30;2.00;;;;;;;18.89;91.39;101212.38;5093306;28;20459;-73
2021/08/10 06:44:31;;;;;;;7.23;2.20;;;;;;;19.03;91.12;101206.53;5093163;28;20460;-73
2021/08/10 06:46:57;;;;;;;2.23;1.80;;;;;;;19.16;89.99;101210.88;5093219;28;20445;-73
2021/08/10 06:49:23;;;;;;;7.50;2.23;;;;;;;19.28;85.60;101219.13;5093241;28;20436;-72
2021/08/10 06:51:50;;;;;;;2.23;1.80;;;;;;;19.42;84.72;101210.53;5093197;28;20452;-72
2021/08/10 06:54:16;;;;;;;1.67;1.57;;;;;;;19.58;83.87;101208.66;5093080;28;20488;-72
2021/08/10 06:56:44;;;;;;;2.00;1.53;;;;;;;19.71;82.45;101195.72;5093217;28;20807;-74
2021/08/10 06:59:10;;;;;;;1.67;1.30;;;;;;;19.83;82.64;101195.69;5093466;28;20925;-72
2021/08/10 07:01:37;;;;;;;2.07;1.77;;;;;;;19.93;82.75;101196.34;5097284;28;20447;-71
2021/08/10 07:04:03;;;;;;;2.10;1.80;;;;;;;19.96;83.22;101210.19;5097128;28;20464;-71
2021/08/10 07:06:31;;;;;;;3.37;1.53;;;;;;;20.01;83.51;101214.63;5097252;28;20450;-76
2021/08/10 07:09:00;;;;;;;2.33;1.80;;;;;;;20.09;84.36;101221.94;5096809;28;20991;-73
2021/08/10 07:11:26;;;;;;;2.20;1.60;;;;;;;20.19;85.47;101215.97;5097113;28;20921;-76
2021/08/10 07:13:54;;;;;;;6.80;1.80;;;;;;;20.26;84.55;101205.13;5096906;28;20463;-75
2021/08/10 07:16:20;;;;;;;2.47;2.27;;;;;;;20.36;84.36;101201.06;5096948;28;20444;-75
2021/08/10 07:18:47;;;;;;;2.43;2.00;;;;;;;20.38;84.02;101194.06;5097059;28;20817;-78
2021/08/10 07:21:13;;;;;;;2.60;2.00;;;;;;;20.45;84.83;101198.16;5097766;28;20841;-77
2021/08/10 07:23:40;;;;;;;2.20;1.90;;;;;;;20.49;84.63;101204.59;5096578;28;20999;-77
2021/08/10 07:26:06;;;;;;;2.10;1.63;;;;;;;20.53;84.47;101211.78;5096864;28;20436;-76
2021/08/10 07:28:33;;;;;;;4.10;2.03;;;;;;;20.56;83.16;101211.09;5096407;28;20820;-76
2021/08/10 07:31:01;;;;;;;3.73;2.27;;;;;;;20.55;82.21;101219.69;5096708;28;20527;-76
2021/08/10 07:33:27;;;;;;;3.00;1.80;;;;;;;20.50;83.50;101222.72;5096304;28;20472;-75
2021/08/10 07:35:53;;;;;;;7.33;1.90;;;;;;;20.49;83.60;101234.84;5096576;28;20480;-76
2021/08/10 07:38:20;;;;;;;3.47;2.00;;;;;;;20.44;82.92;101235.88;5096540;28;20455;-76
2021/08/10 07:40:46;;;;;;;2.13;1.93;;;;;;;20.44;81.62;101229.59;5096553;28;20467;-76
2021/08/10 07:43:13;;;;;;;2.53;1.70;;;;;;;20.47;82.36;101234.41;5096377;28;20460;-75
2021/08/10 07:45:40;;;;;;;3.27;1.73;;;;;;;20.53;80.97;101224.75;5096483;28;20455;-75
2021/08/10 07:48:08;;;;;;;2.23;1.40;;;;;;;20.56;81.57;101216.59;5096388;28;20858;-75
2021/08/10 07:50:34;;;;;;;4.27;1.90;;;;;;;20.64;81.14;101218.38;5096363;28;20448;-75
2021/08/10 07:53:00;;;;;;;3.93;2.03;;;;;;;20.74;82.95;101213.50;5095913;28;20824;-76
2021/08/10 07:55:27;;;;;;;2.13;1.90;;;;;;;20.78;80.67;101209.69;5096149;28;20507;-75
2021/08/10 07:57:53;;;;;;;2.87;1.90;;;;;;;20.87;80.67;101217.75;5095872;28;20819;-76
2021/08/10 08:00:20;;;;;;;4.07;1.67;;;;;;;20.95;80.47;101219.53;5096133;28;20445;-76
2021/08/10 08:02:46;;;;;;;2.30;1.60;;;;;;;21.02;79.28;101216.94;5096235;28;20460;-76
2021/08/10 08:05:14;;;;;;;8.33;1.47;;;;;;;21.02;78.93;101205.13;5095973;28;20437;-75
2021/08/10 08:07:40;;;;;;;1.77;1.30;;;;;;;21.00;80.46;101199.19;5095958;28;20452;-76
2021/08/10 08:10:08;;;;;;;2.17;1.47;;;;;;;21.03;80.03;101196.53;5095698;28;20445;-76
2021/08/10 08:12:35;;;;;;;2.57;1.77;;;;;;;21.06;80.21;101203.25;5095868;28;21769;-76
2021/08/10 08:15:01;;;;;;;2.23;1.40;;;;;;;21.07;79.90;101202.09;5095524;28;20476;-76
2021/08/10 08:17:27;;;;;;;2.77;1.47;;;;;;;21.09;79.87;101202.56;5095859;28;20441;-75
2021/08/10 08:19:54;;;;;;;2.27;1.70;;;;;;;21.05;79.01;101209.94;5095778;28;20436;-75
2021/08/10 08:22:22;;;;;;;1.53;1.43;;;;;;;21.02;81.46;101211.44;5095663;28;20445;-76
2021/08/10 08:24:48;;;;;;;1.90;1.17;;;;;;;21.03;82.59;101203.97;5095692;28;20436;-75
2021/08/10 08:27:14;;;;;;;1.77;1.07;;;;;;;20.98;80.10;101201.50;5095596;28;20448;-75
2021/08/10 08:29:41;;;;;;;5.50;2.00;;;;;;;20.96;81.24;101196.34;5095641;28;20791;-75
2021/08/10 08:32:08;;;;;;;3.23;1.83;;;;;;;20.91;79.70;101191.91;5095056;28;20463;-75
2021/08/10 08:34:35;;;;;;;3.40;2.00;;;;;;;20.93;80.48;101194.28;5095315;28;20489;-75
2021/08/10 08:37:03;;;;;;;1.67;1.40;;;;;;;20.94;80.98;101197.84;5095487;28;20447;-75
2021/08/10 08:39:31;;;;;;;2.47;1.60;;;;;;;21.04;80.86;101205.59;5095498;28;20448;-76
2021/08/10 08:41:59;;;;;;;2.27;1.67;;;;;;;21.08;81.05;101198.22;5095557;28;20448;-76
2021/08/10 08:44:26;;;;;;;1.83;1.50;;;;;;;21.17;80.48;101196.06;5095030;28;20839;-75
2021/08/10 08:46:54;;;;;;;3.13;1.77;;;;;;;21.13;76.21;101184.97;5095331;28;20548;-75
2021/08/10 08:49:23;;;;;;;3.50;1.70;;;;;;;21.15;77.92;101187.34;5095307;28;20810;-76
2021/08/10 08:51:50;;;;;;;2.37;1.60;;;;;;;21.11;78.66;101187.25;5095491;28;20440;-76
2021/08/10 08:54:17;;;;;;;4.80;1.50;;;;;;;21.20;78.38;101181.56;5095068;28;20465;-76
2021/08/10 08:56:44;;;;;;;2.40;1.60;;;;;;;21.16;77.67;101189.75;5095171;28;20457;-76
2021/08/10 08:59:11;;;;;;;3.20;1.37;;;;;;;21.09;78.93;101186.03;5095056;28;20447;-75
2021/08/10 09:01:38;;;;;;;2.20;1.60;;;;;;;21.10;77.43;101185.66;5095021;28;20444;-75
2021/08/10 09:04:07;;;;;;;1.97;1.50;;;;;;;21.10;76.99;101180.16;5094955;28;20551;-75
2021/08/10 09:06:33;;;;;;;3.77;1.40;;;;;;;21.12;78.77;101183.38;5094922;28;20448;-75
2021/08/10 09:09:19;;;;;;;1.43;1.27;;;;;;;21.13;76.53;101184.16;5094877;28;20436;-75
2021/08/10 09:11:50;;;;;;;1.80;1.43;;;;;;;21.13;77.40;101184.16;5094838;28;20433;-75
2021/08/10 09:14:17;;;;;;;1.70;1.30;;;;;;;21.20;78.70;101198.09;5094685;28;20456;-75
2021/08/10 09:17:01;;;;;;;3.77;1.73;;;;;;;21.30;77.72;101181.00;5094644;28;20488;-75
2021/08/10 09:19:39;;;;;;;4.07;1.80;;;;;;;21.41;77.44;101173.78;5094681;28;20435;-75
2021/08/10 09:22:13;;;;;;;2.90;1.90;;;;;;;21.48;77.70;101169.63;5094081;28;20464;-76
2021/08/10 09:24:43;;;;;;;11.33;2.23;;;;;;;21.75;77.10;101170.56;5094502;28;20827;-75
2021/08/10 09:27:24;;;;;;;3.37;2.03;;;;;;;21.90;76.15;101170.50;5094487;28;20437;-75
2021/08/10 09:29:52;;;;;;;2.97;1.77;;;;;;;21.96;72.07;101165.50;5094577;28;20432;-75
2021/08/10 09:32:19;;;;;;;2.00;1.30;;;;;;;22.00;73.21;101152.56;5093910;28;20432;-75
2021/08/10 09:34:45;;;;;;;2.37;1.30;;;;;;;22.07;75.02;101158.22;5094058;28;20906;-75
2021/08/10 09:37:15;;;;;;;3.10;1.47;;;;;;;22.38;72.61;101160.00;5094210;28;20441;-75
2021/08/10 09:39:41;;;;;;;1.70;1.37;;;;;;;22.57;70.27;101163.84;5094251;28;20479;-75
2021/08/10 09:42:11;;;;;;;3.77;1.60;;;;;;;22.62;70.09;101163.53;5094214;28;20451;-75
2021/08/10 09:44:40;;;;;;;1.63;1.07;;;;;;;22.73;69.34;101175.56;5094131;28;20903;-75
2021/08/10 09:47:07;;;;;;;2.93;1.90;;;;;;;22.80;71.04;101159.13;5094164;28;20831;-75
2021/08/10 09:49:44;;;;;;;1.43;1.20;;;;;;;22.95;71.27;101167.66;5094162;28;20444;-75
2021/08/10 09:52:24;;;;;;;1.87;1.47;;;;;;;22.95;68.66;101154.66;5093793;28;20941;-75
2021/08/10 09:54:50;;;;;;;2.10;1.37;;;;;;;23.12;67.68;101159.66;5094070;28;20431;-75
2021/08/10 09:57:16;;;;;;;1.43;1.23;;;;;;;23.32;69.55;101174.13;5093643;28;20521;-76
2021/08/10 09:59:45;;;;;;;2.03;1.47;;;;;;;23.48;70.18;101168.44;5093807;28;20456;-75
2021/08/10 10:02:18;;;;;;;1.97;1.40;;;;;;;23.54;69.57;101171.66;5093874;28;20459;-76
2021/08/10 10:04:49;;;;;;;4.60;1.70;;;;;;;23.50;70.17;101179.91;5093864;28;20466;-75
2021/08/10 10:07:15;;;;;;;1.97;1.77;;;;;;;23.57;70.54;101174.47;5093798;28;20429;-76
2021/08/10 10:09:43;;;;;;;3.23;1.53;;;;;;;23.52;68.82;101174.03;5093735;28;20445;-76
2021/08/10 10:12:10;;;;;;;4.40;1.40;;;;;;;23.59;68.77;101166.59;5093407;28;20938;-75
2021/08/10 10:14:38;;;;;;;1.80;1.17;;;;;;;23.68;69.13;101163.56;5093541;28;20546;-76
2021/08/10 10:17:08;;;;;;;1.87;1.33;;;;;;;23.65;63.89;101170.66;5093270;28;21086;-75
2021/08/10 10:19:36;;;;;;;2.30;1.53;;;;;;;23.64;66.33;101173.75;5093616;28;20429;-75
2021/08/10 10:22:05;;;;;;;3.23;1.23;;;;;;;23.53;65.67;101173.63;5093577;28;20440;-76
2021/08/10 10:24:38;;;;;;;2.93;1.30;;;;;;;23.44;67.35;101172.31;5093379;28;20469;-74
2021/08/10 10:27:07;;;;;;;2.13;1.30;;;;;;;23.40;67.91;101175.03;5093167;28;20413;-73
2021/08/10 10:29:35;;;;;;;3.40;1.33;;;;;;;23.25;69.11;101171.28;5093359;28;20459;-73
2021/08/10 10:32:02;;;;;;;3.03;1.70;;;;;;;23.09;67.80;101159.59;5093365;28;20444;-77
2021/08/10 10:34:31;;;;;;;3.20;1.43;;;;;;;23.01;68.46;101168.94;5093753;28;20826;-78
2021/08/10 10:36:59;;;;;;;3.13;1.50;;;;;;;22.86;69.41;101154.88;5093597;28;21019;-75
2021/08/10 10:39:28;;;;;;;1.83;1.47;;;;;;;22.87;70.26;101150.94;5092932;28;20466;-77
2021/08/10 10:41:57;;;;;;;2.43;1.50;;;;;;;22.84;69.75;101142.59;5093237;28;20473;-78
2021/08/10 10:44:40;;;;;;;2.60;1.43;;;;;;;22.85;70.08;101150.53;5092728;28;20461;-76
2021/08/10 10:47:35;;;;;;;1.53;1.23;;;;;;;22.82;69.35;101145.72;5093209;28;20421;-77
2021/08/10 10:50:24;;;;;;;2.30;1.47;;;;;;;22.71;70.39;101147.53;5092774;28;20859;-76
2021/08/10 10:53:03;;;;;;;3.10;1.20;;;;;;;22.58;69.98;101146.13;5085966;28;20469;-73
2021/08/10 10:55:32;;;;;;;2.13;1.60;;;;;;;22.59;71.74;101156.00;5092479;28;20487;-75
2021/08/10 10:57:59;;;;;;;2.43;1.53;;;;;;;22.52;72.08;101148.41;5092626;28;20432;-75
2021/08/10 11:00:27;;;;;;;5.30;1.90;;;;;;;22.52;73.46;101153.13;5092369;28;20455;-76
2021/08/10 11:03:13;;;;;;;1.90;1.53;;;;;;;22.46;69.95;101149.88;5092797;28;20510;-77
2021/08/10 11:05:41;;;;;;;1.50;1.10;;;;;;;22.44;69.03;101151.41;5092728;28;20956;-77
2021/08/10 11:08:38;;;;;;;3.20;1.50;;;;;;;22.48;69.88;101152.25;5093010;28;20494;-77
2021/08/10 11:11:04;;;;;;;1.57;1.47;;;;;;;22.50;70.54;101141.66;5092623;28;20428;-76
2021/08/10 11:13:38;;;;;;;4.03;1.67;;;;;;;22.57;69.42;101147.28;5092918;28;20460;-78
2021/08/10 11:16:06;;;;;;;1.57;1.13;;;;;;;22.59;70.73;101150.50;5093597;28;20560;-75
2021/08/10 11:18:33;;;;;;;1.80;1.53;;;;;;;22.73;69.42;101150.72;5092808;28;20468;-78
2021/08/10 11:21:26;;;;;;;3.67;1.53;;;;;;;22.73;68.22;101149.94;5092477;28;20544;-73
2021/08/10 11:23:53;;;;;;;2.90;1.53;;;;;;;22.86;69.00;101149.34;5092301;28;20460;-74
2021/08/10 11:26:34;;;;;;;3.63;1.27;;;;;;;23.33;66.40;101147.28;5092360;28;20443;-74
2021/08/10 11:29:01;;;;;;;3.70;1.40;;;;;;;23.94;65.74;101145.28;5092032;28;20436;-75